createdAt,value
2022-08-19T00:01:37.972Z,4.07
2022-08-19T00:04:10.487Z,3.60
2022-08-19T00:06:40.980Z,3.60
2022-08-19T00:09:11.675Z,4.10
2022-08-19T00:11:40.148Z,4.10
2022-08-19T00:14:10.824Z,3.50
2022-08-19T00:16:39.757Z,3.10
2022-08-19T00:19:10.107Z,4.27
2022-08-19T00:21:40.830Z,4.03
2022-08-19T00:24:09.874Z,4.50
2022-08-19T00:26:38.843Z,3.80
2022-08-19T00:29:08.949Z,4.30
2022-08-19T00:31:37.123Z,4.67
2022-08-19T00:34:05.558Z,4.27
2022-08-19T00:36:35.143Z,4.03
2022-08-19T00:39:03.295Z,4.10
2022-08-19T00:41:31.897Z,4.17
2022-08-19T00:44:05.380Z,4.03
2022-08-19T00:46:34.666Z,3.87
2022-08-19T00:49:06.345Z,3.97
2022-08-19T00:51:36.505Z,3.90
2022-08-19T00:54:05.034Z,3.80
2022-08-19T00:56:33.738Z,3.93
2022-08-19T00:59:02.746Z,4.27
2022-08-19T01:01:33.842Z,3.70
2022-08-19T01:04:02.077Z,4.03
2022-08-19T01:06:31.887Z,3.33
2022-08-19T01:09:02.005Z,3.53
2022-08-19T01:11:30.286Z,3.67
2022-08-19T01:13:58.658Z,3.50
2022-08-19T01:16:30.104Z,4.13
2022-08-19T01:18:58.583Z,4.03
2022-08-19T01:21:30.969Z,3.63
2022-08-19T01:24:00.531Z,3.70
2022-08-19T01:26:31.209Z,3.60
2022-08-19T01:29:02.097Z,4.07
2022-08-19T01:31:33.580Z,3.67
2022-08-19T01:34:03.079Z,3.33
2022-08-19T01:36:33.719Z,3.90
2022-08-19T01:39:06.318Z,3.43
2022-08-19T01:41:35.909Z,3.50
2022-08-19T01:44:17.869Z,4.17
2022-08-19T01:46:50.350Z,3.77
2022-08-19T01:49:20.121Z,4.20
2022-08-19T01:51:48.488Z,4.10
2022-08-19T01:54:27.216Z,3.83
2022-08-19T01:57:00.728Z,3.70
2022-08-19T01:59:28.967Z,3.83
2022-08-19T02:01:57.227Z,3.77
2022-08-19T02:04:26.543Z,4.03
2022-08-19T02:06:54.741Z,4.30
2022-08-19T02:09:24.676Z,3.93
2022-08-19T02:11:52.996Z,4.40
2022-08-19T02:14:21.182Z,3.40
2022-08-19T02:16:49.356Z,3.50
2022-08-19T02:19:17.511Z,5.07
2022-08-19T02:21:46.853Z,3.87
2022-08-19T02:24:15.032Z,3.90
2022-08-19T02:26:44.787Z,3.40
2022-08-19T02:29:12.955Z,3.90
2022-08-19T02:31:41.080Z,3.60
2022-08-19T02:34:09.573Z,4.10
2022-08-19T02:36:42.221Z,4.60
2022-08-19T02:39:10.033Z,3.90
2022-08-19T02:41:38.269Z,3.60
2022-08-19T02:44:29.362Z,4.27
2022-08-19T02:46:56.488Z,4.33
2022-08-19T02:49:26.384Z,4.20
2022-08-19T02:51:55.394Z,4.73
2022-08-19T02:54:23.516Z,4.27
2022-08-19T02:56:51.609Z,4.77
2022-08-19T02:59:22.907Z,3.90
2022-08-19T03:01:51.426Z,4.33
2022-08-19T03:04:20.307Z,4.17
2022-08-19T03:06:49.250Z,3.90
2022-08-19T03:09:17.949Z,4.00
2022-08-19T03:11:46.518Z,3.50
2022-08-19T03:14:16.977Z,4.00
2022-08-19T03:16:48.866Z,3.70
2022-08-19T03:19:19.595Z,3.60
2022-08-19T03:21:48.064Z,3.50
2022-08-19T03:24:17.089Z,3.30
2022-08-19T03:26:48.264Z,3.53
2022-08-19T03:29:22.220Z,3.70
2022-08-19T03:32:01.609Z,3.80
2022-08-19T03:34:32.347Z,3.37
2022-08-19T03:37:02.322Z,3.40
2022-08-19T03:39:31.234Z,3.30
2022-08-19T03:42:29.267Z,3.80
2022-08-19T03:44:49.169Z,4.20
2022-08-19T03:47:18.830Z,4.30
2022-08-19T03:49:47.367Z,3.80
2022-08-19T03:52:15.407Z,3.83
2022-08-19T03:54:43.721Z,3.93
2022-08-19T03:57:12.202Z,4.40
2022-08-19T03:59:40.954Z,3.90
2022-08-19T04:02:11.655Z,3.90
2022-08-19T04:04:44.278Z,3.60
2022-08-19T04:07:16.841Z,3.83
2022-08-19T04:09:45.121Z,4.10
2022-08-19T04:12:13.348Z,4.00
2022-08-19T04:14:42.308Z,4.27
2022-08-19T04:17:10.496Z,3.60
2022-08-19T04:19:39.661Z,3.97
2022-08-19T04:22:09.161Z,3.60
2022-08-19T04:24:37.632Z,3.70
2022-08-19T04:27:06.545Z,4.20
2022-08-19T04:29:35.169Z,4.33
2022-08-19T04:32:09.120Z,3.47
2022-08-19T04:35:01.478Z,4.10
2022-08-19T04:37:35.538Z,3.50
2022-08-19T04:40:24.355Z,3.97
2022-08-19T04:42:52.727Z,4.57
2022-08-19T04:45:23.023Z,4.37
2022-08-19T04:47:58.905Z,4.37
2022-08-19T04:50:42.749Z,4.53
2022-08-19T04:53:13.348Z,4.67
2022-08-19T04:55:44.344Z,4.50
2022-08-19T04:58:12.495Z,4.80
2022-08-19T05:00:41.944Z,5.00
2022-08-19T05:03:10.487Z,4.97
2022-08-19T05:05:45.101Z,4.80
2022-08-19T05:08:30.793Z,5.53
2022-08-19T05:11:10.092Z,5.23
2022-08-19T05:13:43.320Z,4.97
2022-08-19T05:16:12.627Z,6.03
2022-08-19T05:18:58.721Z,5.77
2022-08-19T05:21:44.618Z,5.33
2022-08-19T05:24:15.514Z,6.33
2022-08-19T05:26:44.468Z,5.90
2022-08-19T05:29:12.524Z,7.63
2022-08-19T05:31:41.711Z,7.10
2022-08-19T05:34:18.208Z,8.63
2022-08-19T05:36:48.729Z,8.07
2022-08-19T05:39:20.977Z,7.67
2022-08-19T05:41:50.952Z,8.17
2022-08-19T05:44:20.723Z,9.07
2022-08-19T05:46:48.996Z,7.83
2022-08-19T05:49:18.142Z,8.67
2022-08-19T05:51:46.223Z,9.30
2022-08-19T05:54:15.971Z,8.00
2022-08-19T05:56:48.654Z,8.50
2022-08-19T05:59:18.065Z,9.77
2022-08-19T06:01:51.508Z,9.00
2022-08-19T06:04:23.289Z,8.47
2022-08-19T06:06:54.289Z,9.90
2022-08-19T06:09:23.788Z,9.30
2022-08-19T06:11:56.090Z,9.20
2022-08-19T06:14:30.463Z,9.50
2022-08-19T06:17:02.643Z,10.17
2022-08-19T06:19:34.722Z,10.27
2022-08-19T06:22:09.314Z,9.20
2022-08-19T06:24:37.496Z,9.60
2022-08-19T06:27:07.439Z,9.50
2022-08-19T06:29:36.375Z,9.53
2022-08-19T06:32:05.787Z,9.90
2022-08-19T06:34:35.314Z,9.97
2022-08-19T06:37:03.658Z,9.97
2022-08-19T06:39:40.506Z,9.40
2022-08-19T06:42:12.831Z,9.00
2022-08-19T06:44:43.674Z,8.80
2022-08-19T06:47:23.154Z,8.03
2022-08-19T06:50:03.239Z,8.23
2022-08-19T06:52:34.235Z,7.20
2022-08-19T06:55:06.219Z,7.43
2022-08-19T06:57:36.386Z,7.80
2022-08-19T07:00:07.141Z,8.07
2022-08-19T07:02:38.618Z,7.37
2022-08-19T07:05:07.947Z,8.40
2022-08-19T07:07:36.896Z,8.10
2022-08-19T07:10:07.845Z,7.23
2022-08-19T07:12:38.327Z,7.67
2022-08-19T07:15:09.685Z,7.87
2022-08-19T07:17:42.046Z,7.47
2022-08-19T07:20:11.113Z,7.10
2022-08-19T07:22:39.655Z,7.53
2022-08-19T07:25:08.988Z,7.30
2022-08-19T07:27:53.241Z,7.60
2022-08-19T07:30:26.295Z,7.30
2022-08-19T07:32:57.289Z,7.03
2022-08-19T07:35:26.759Z,7.73
2022-08-19T07:37:55.021Z,7.40
2022-08-19T07:40:23.626Z,6.70
2022-08-19T07:42:53.062Z,6.83
2022-08-19T07:45:21.530Z,6.67
2022-08-19T07:47:51.382Z,6.00
2022-08-19T07:50:21.006Z,6.40
2022-08-19T07:52:50.565Z,6.83
2022-08-19T07:55:40.212Z,6.30
2022-08-19T07:58:13.906Z,6.10
2022-08-19T08:00:42.720Z,6.00
2022-08-19T08:03:11.023Z,5.53
2022-08-19T08:05:56.568Z,5.53
2022-08-19T08:08:51.636Z,5.60
2022-08-19T08:11:24.128Z,4.87
2022-08-19T08:14:01.309Z,5.83
2022-08-19T08:16:35.413Z,4.90
2022-08-19T08:19:12.629Z,5.30
2022-08-19T08:21:49.320Z,5.27
2022-08-19T08:24:18.003Z,5.83
2022-08-19T08:26:52.256Z,5.30
2022-08-19T08:29:27.305Z,5.17
2022-08-19T08:32:03.678Z,5.00
2022-08-19T08:34:42.516Z,5.67
2022-08-19T08:37:10.921Z,5.50
2022-08-19T08:39:39.156Z,4.50
2022-08-19T08:42:16.823Z,4.80
2022-08-19T08:47:36.760Z,4.97
2022-08-19T08:50:09.506Z,5.70
2022-08-19T08:52:39.731Z,5.13
2022-08-19T08:55:14.797Z,5.60
2022-08-19T08:57:52.207Z,4.57
2022-08-19T09:00:25.077Z,5.17
2022-08-19T09:02:53.212Z,5.80
2022-08-19T09:05:26.073Z,6.10
2022-08-19T09:08:00.688Z,5.87
2022-08-19T09:10:34.642Z,5.07
2022-08-19T09:13:21.254Z,5.43
2022-08-19T09:15:55.496Z,5.40
2022-08-19T09:18:23.940Z,5.80
2022-08-19T09:20:52.013Z,5.43
2022-08-19T09:23:26.649Z,5.77
2022-08-19T09:25:55.607Z,5.03
2022-08-19T09:28:27.056Z,4.97
2022-08-19T09:30:57.013Z,5.40
2022-08-19T09:33:26.189Z,5.33
2022-08-19T09:36:08.394Z,5.33
2022-08-19T09:38:37.485Z,5.60
2022-08-19T09:41:15.383Z,6.10
2022-08-19T09:43:48.035Z,5.80
2022-08-19T09:46:19.277Z,5.40
2022-08-19T09:48:51.545Z,4.90
2022-08-19T09:51:22.465Z,4.77
2022-08-19T09:53:54.619Z,5.83
2022-08-19T09:56:23.691Z,5.93
2022-08-19T09:58:52.978Z,5.00
2022-08-19T10:01:25.484Z,5.20
2022-08-19T10:03:56.353Z,5.77
2022-08-19T10:06:44.046Z,5.00
2022-08-19T10:09:15.973Z,4.70
2022-08-19T10:11:54.829Z,5.27
2022-08-19T10:14:24.678Z,5.10
2022-08-19T10:16:54.343Z,5.40
2022-08-19T10:19:25.726Z,5.90
2022-08-19T10:21:55.800Z,5.37
2022-08-19T10:24:29.657Z,5.60
2022-08-19T10:26:58.942Z,4.77
2022-08-19T10:29:31.883Z,4.20
2022-08-19T10:32:03.531Z,5.30
2022-08-19T10:34:33.133Z,5.37
2022-08-19T10:37:02.399Z,4.80
2022-08-19T10:39:32.884Z,5.60
2022-08-19T10:42:14.076Z,5.17
2022-08-19T10:44:42.869Z,5.63
2022-08-19T10:47:17.546Z,5.03
2022-08-19T10:50:12.288Z,4.97
2022-08-19T10:52:49.773Z,5.13
2022-08-19T10:55:37.927Z,5.93
2022-08-19T10:58:06.545Z,5.93
2022-08-19T11:00:36.809Z,5.30
2022-08-19T11:03:06.930Z,5.77
2022-08-19T11:05:40.751Z,5.50
2022-08-19T11:08:23.176Z,5.43
2022-08-19T11:11:00.287Z,5.20
2022-08-19T11:13:29.860Z,5.20
2022-08-19T11:16:07.373Z,6.00
2022-08-19T11:18:38.805Z,5.20
2022-08-19T11:21:11.227Z,5.40
2022-08-19T11:23:39.423Z,5.37
2022-08-19T11:26:07.633Z,5.07
2022-08-19T11:28:35.973Z,5.80
2022-08-19T11:31:04.412Z,5.57
2022-08-19T11:33:33.827Z,4.70
2022-08-19T11:36:06.013Z,4.70
2022-08-19T11:38:34.906Z,5.23
2022-08-19T11:41:06.074Z,5.30
2022-08-19T11:43:37.265Z,4.50
2022-08-19T11:46:07.850Z,4.70
2022-08-19T11:48:36.601Z,4.60
2022-08-19T11:51:09.677Z,4.87
2022-08-19T11:53:38.785Z,4.57
2022-08-19T11:56:09.460Z,4.53
2022-08-19T11:58:38.117Z,4.90
2022-08-19T12:01:09.782Z,5.10
2022-08-19T12:03:38.066Z,4.50
2022-08-19T12:06:09.888Z,4.87
2022-08-19T12:08:38.333Z,4.93
2022-08-19T12:11:08.864Z,5.10
2022-08-19T12:13:37.948Z,4.40
2022-08-19T12:16:13.471Z,4.57
2022-08-19T12:18:44.596Z,4.13
2022-08-19T12:21:14.854Z,5.23
2022-08-19T12:23:43.315Z,4.60
2022-08-19T12:26:13.288Z,4.70
2022-08-19T12:28:42.448Z,4.37
2022-08-19T12:31:13.045Z,4.23
2022-08-19T12:33:43.917Z,4.30
2022-08-19T12:36:16.239Z,4.57
2022-08-19T12:38:45.127Z,4.80
2022-08-19T12:41:22.952Z,4.17
2022-08-19T12:43:52.198Z,4.40
2022-08-19T12:46:22.287Z,4.23
2022-08-19T12:48:56.191Z,4.67
2022-08-19T12:51:26.385Z,5.77
2022-08-19T12:53:54.493Z,4.77
2022-08-19T12:56:23.525Z,4.40
2022-08-19T12:58:52.811Z,4.97
2022-08-19T13:01:23.014Z,4.77
2022-08-19T13:03:53.565Z,5.10
2022-08-19T13:06:22.453Z,5.00
2022-08-19T13:08:55.442Z,4.77
2022-08-19T13:11:26.448Z,4.97
2022-08-19T13:13:56.296Z,4.93
2022-08-19T13:16:24.602Z,5.57
2022-08-19T13:18:55.348Z,4.77
2022-08-19T13:21:25.894Z,4.17
2022-08-19T13:23:55.844Z,5.23
2022-08-19T13:26:24.342Z,4.20
2022-08-19T13:29:09.709Z,4.60
2022-08-19T13:31:56.326Z,4.60
2022-08-19T13:34:31.594Z,4.37
2022-08-19T13:37:00.004Z,4.50
2022-08-19T13:39:29.524Z,4.67
2022-08-19T13:41:57.822Z,4.87
2022-08-19T13:44:25.988Z,4.90
2022-08-19T13:46:54.552Z,4.63
2022-08-19T13:49:26.398Z,4.80
2022-08-19T13:51:54.493Z,4.57
2022-08-19T13:54:22.807Z,5.70
2022-08-19T13:56:52.309Z,4.03
2022-08-19T13:59:20.637Z,4.43
2022-08-19T14:01:48.827Z,4.37
2022-08-19T14:04:16.941Z,4.40
2022-08-19T14:06:45.061Z,5.63
2022-08-19T14:09:13.229Z,4.67
2022-08-19T14:11:41.396Z,4.63
2022-08-19T14:14:16.228Z,5.20
2022-08-19T14:16:44.916Z,4.77
2022-08-19T14:19:13.049Z,4.23
2022-08-19T14:21:42.035Z,4.67
2022-08-19T14:24:10.526Z,4.50
2022-08-19T14:26:39.517Z,4.07
2022-08-19T14:29:07.693Z,4.13
2022-08-19T14:31:37.405Z,4.70
2022-08-19T14:34:07.865Z,4.80
2022-08-19T14:36:39.057Z,4.43
2022-08-19T14:39:08.213Z,4.57
2022-08-19T14:41:36.516Z,4.53
2022-08-19T14:44:05.030Z,4.77
2022-08-19T14:46:33.549Z,4.30
2022-08-19T14:49:09.580Z,4.40
2022-08-19T14:51:37.927Z,4.73
2022-08-19T14:54:06.375Z,4.07
2022-08-19T14:56:34.530Z,3.90
2022-08-19T14:59:02.890Z,4.47
2022-08-19T15:01:31.113Z,3.57
2022-08-19T15:03:59.280Z,4.00
2022-08-19T15:06:29.330Z,3.77
2022-08-19T15:09:01.940Z,3.50
2022-08-19T15:11:33.497Z,3.63
2022-08-19T15:14:02.489Z,2.93
2022-08-19T15:16:30.743Z,4.03
2022-08-19T15:19:02.102Z,3.00
2022-08-19T15:21:32.270Z,3.30
2022-08-19T15:24:01.811Z,3.10
2022-08-19T15:26:33.019Z,3.30
2022-08-19T15:29:03.126Z,2.83
2022-08-19T15:31:38.207Z,3.40
2022-08-19T15:34:06.958Z,3.30
2022-08-19T15:36:41.127Z,2.80
2022-08-19T15:39:10.325Z,2.83
2022-08-19T15:41:39.617Z,3.10
2022-08-19T15:44:11.470Z,3.33
2022-08-19T15:46:43.802Z,3.00
2022-08-19T15:49:13.668Z,2.90
2022-08-19T15:51:44.635Z,3.10
2022-08-19T15:54:16.757Z,3.00
2022-08-19T15:57:02.220Z,3.43
2022-08-19T15:59:48.229Z,2.93
2022-08-19T16:02:37.231Z,3.10
2022-08-19T16:05:26.882Z,3.00
2022-08-19T16:07:56.639Z,2.50
2022-08-19T16:10:28.160Z,3.43
2022-08-19T16:12:57.796Z,2.97
2022-08-19T16:15:27.562Z,3.13
2022-08-19T16:17:57.345Z,3.00
2022-08-19T16:20:29.485Z,3.20
2022-08-19T16:23:04.124Z,2.83
2022-08-19T16:25:32.671Z,2.80
2022-08-19T16:28:07.231Z,2.90
2022-08-19T16:30:39.069Z,2.50
2022-08-19T16:33:09.075Z,2.90
2022-08-19T16:35:42.563Z,2.67
2022-08-19T16:38:16.581Z,3.47
2022-08-19T16:40:46.800Z,2.43
2022-08-19T16:43:15.084Z,3.20
2022-08-19T16:45:44.131Z,3.17
2022-08-19T16:48:12.561Z,3.30
2022-08-19T16:50:49.345Z,2.93
2022-08-19T16:53:23.270Z,3.30
2022-08-19T16:55:57.240Z,3.10
2022-08-19T16:58:28.261Z,2.90
2022-08-19T17:01:01.900Z,3.43
2022-08-19T17:03:36.154Z,3.87
2022-08-19T17:06:18.513Z,3.43
2022-08-19T17:08:51.682Z,4.30
2022-08-19T17:11:21.266Z,3.90
2022-08-19T17:13:50.953Z,3.63
2022-08-19T17:16:20.164Z,4.10
2022-08-19T17:18:52.907Z,3.43
2022-08-19T17:21:21.689Z,3.70
2022-08-19T17:23:51.272Z,3.40
2022-08-19T17:26:19.755Z,2.80
2022-08-19T17:28:49.790Z,2.80
2022-08-19T17:31:19.185Z,3.30
2022-08-19T17:33:48.991Z,3.27
2022-08-19T17:36:17.676Z,3.70
2022-08-19T17:38:46.013Z,3.43
2022-08-19T17:41:15.623Z,2.87
2022-08-19T17:43:44.351Z,3.50
2022-08-19T17:46:18.320Z,3.30
2022-08-19T17:48:51.817Z,3.30
2022-08-19T17:51:24.701Z,3.13
2022-08-19T17:53:55.859Z,3.50
2022-08-19T17:56:25.559Z,3.40
2022-08-19T17:59:00.008Z,3.57
2022-08-19T18:01:34.708Z,4.20
2022-08-19T18:04:18.918Z,4.00
2022-08-19T18:06:53.036Z,3.90
2022-08-19T18:09:25.154Z,2.90
2022-08-19T18:11:57.140Z,3.57
2022-08-19T18:14:33.671Z,3.20
2022-08-19T18:17:09.682Z,3.53
2022-08-19T18:19:41.055Z,3.77
2022-08-19T18:22:12.732Z,3.03
2022-08-19T18:24:41.783Z,4.07
2022-08-19T18:27:11.506Z,3.63
2022-08-19T18:29:40.351Z,3.93
2022-08-19T18:32:12.729Z,3.10
2022-08-19T18:34:42.009Z,3.80
2022-08-19T18:37:11.092Z,4.27
2022-08-19T18:39:58.683Z,4.40
2022-08-19T18:42:45.605Z,3.77
2022-08-19T18:45:31.671Z,3.87
2022-08-19T18:48:27.046Z,3.90
2022-08-19T18:50:57.708Z,4.03
2022-08-19T18:53:26.431Z,3.53
2022-08-19T18:55:55.247Z,3.30
2022-08-19T18:58:28.322Z,3.70
2022-08-19T19:00:57.542Z,3.90
2022-08-19T19:03:26.850Z,3.53
2022-08-19T19:05:55.055Z,3.97
2022-08-19T19:08:27.029Z,4.50
2022-08-19T19:10:57.022Z,3.80
2022-08-19T19:13:28.791Z,3.63
2022-08-19T19:15:57.438Z,3.80
2022-08-19T19:18:30.628Z,3.50
2022-08-19T19:21:02.598Z,4.87
2022-08-19T19:23:31.359Z,4.07
2022-08-19T19:25:59.625Z,4.43
2022-08-19T19:28:29.587Z,4.37
2022-08-19T19:30:58.916Z,4.77
2022-08-19T19:33:27.554Z,4.87
2022-08-19T19:35:56.565Z,4.80
2022-08-19T19:38:26.393Z,3.83
2022-08-19T19:40:54.641Z,5.00
2022-08-19T19:43:23.393Z,4.13
2022-08-19T19:45:53.402Z,4.03
2022-08-19T19:48:21.695Z,4.10
2022-08-19T19:50:54.286Z,4.60
2022-08-19T19:53:26.268Z,4.20
2022-08-19T19:55:58.894Z,4.50
2022-08-19T19:58:30.237Z,3.77
2022-08-19T20:01:01.356Z,4.80
2022-08-19T20:03:36.272Z,5.13
2022-08-19T20:06:04.495Z,3.97
2022-08-19T20:08:50.215Z,4.53
2022-08-19T20:11:31.519Z,3.87
2022-08-19T20:14:01.643Z,4.30
2022-08-19T20:16:31.806Z,3.93
2022-08-19T20:19:01.351Z,4.20
2022-08-19T20:21:32.377Z,3.83
2022-08-19T20:24:09.503Z,4.30
2022-08-19T20:26:38.374Z,5.00
2022-08-19T20:29:11.194Z,4.50
2022-08-19T20:31:59.202Z,3.33
2022-08-19T20:34:28.815Z,4.20
2022-08-19T20:36:58.999Z,3.80
2022-08-19T20:39:27.160Z,4.20
2022-08-19T20:41:56.594Z,4.10
2022-08-19T20:44:25.528Z,4.20
2022-08-19T20:46:54.344Z,5.10
2022-08-19T20:49:27.717Z,4.07
2022-08-19T20:51:56.595Z,4.43
2022-08-19T20:54:25.513Z,4.20
2022-08-19T20:56:54.005Z,4.10
2022-08-19T20:59:22.850Z,4.47
2022-08-19T21:01:52.347Z,4.67
2022-08-19T21:04:21.310Z,3.57
2022-08-19T21:06:51.312Z,4.57
2022-08-19T21:09:20.147Z,4.30
2022-08-19T21:11:48.810Z,4.00
2022-08-19T21:14:17.339Z,3.93
2022-08-19T21:16:46.258Z,4.67
2022-08-19T21:19:14.638Z,4.20
2022-08-19T21:21:42.813Z,4.43
2022-08-19T21:24:12.357Z,4.27
2022-08-19T21:26:42.892Z,4.47
2022-08-19T21:29:11.079Z,4.27
2022-08-19T21:31:39.162Z,3.73
2022-08-19T21:34:07.392Z,4.47
2022-08-19T21:36:35.702Z,3.37
2022-08-19T21:39:04.071Z,3.07
2022-08-19T21:41:33.686Z,2.80
2022-08-19T21:44:01.783Z,3.20
2022-08-19T21:46:29.935Z,2.97
2022-08-19T21:48:58.098Z,3.90
2022-08-19T21:51:27.522Z,3.07
2022-08-19T21:53:55.802Z,3.40
2022-08-19T21:56:24.675Z,3.20
2022-08-19T21:58:55.605Z,2.90
2022-08-19T22:01:23.986Z,2.23
2022-08-19T22:03:53.755Z,2.43
2022-08-19T22:06:25.986Z,1.67
2022-08-19T22:08:57.080Z,1.60
2022-08-19T22:11:25.726Z,1.50
2022-08-19T22:13:56.680Z,1.37
2022-08-19T22:16:25.761Z,1.93
2022-08-19T22:18:54.164Z,1.70
2022-08-19T22:21:34.578Z,1.67
2022-08-19T22:24:09.515Z,2.10
2022-08-19T22:26:37.614Z,1.90
2022-08-19T22:29:07.589Z,1.93
2022-08-19T22:31:37.650Z,2.17
2022-08-19T22:34:06.303Z,2.30
2022-08-19T22:36:35.737Z,2.10
2022-08-19T22:39:04.832Z,2.50
2022-08-19T22:41:33.703Z,2.10
2022-08-19T22:44:01.865Z,2.23
2022-08-19T22:46:34.288Z,2.57
2022-08-19T22:49:02.872Z,1.87
2022-08-19T22:51:48.923Z,2.80
2022-08-19T22:54:17.399Z,2.43
2022-08-19T22:56:45.711Z,2.23
2022-08-19T22:59:14.000Z,2.70
2022-08-19T23:01:43.459Z,2.33
2022-08-19T23:04:11.742Z,2.70
2022-08-19T23:06:42.045Z,2.50
2022-08-19T23:09:10.722Z,2.80
2022-08-19T23:11:42.059Z,2.90
2022-08-19T23:14:11.446Z,2.70
2022-08-19T23:16:41.562Z,2.80
2022-08-19T23:19:12.037Z,2.40
2022-08-19T23:21:40.474Z,2.40
2022-08-19T23:24:09.231Z,3.20
2022-08-19T23:26:37.531Z,2.73
2022-08-19T23:29:24.255Z,2.87
2022-08-19T23:31:52.364Z,2.80
2022-08-19T23:34:21.822Z,2.73
2022-08-19T23:36:50.546Z,3.43
2022-08-19T23:39:19.431Z,3.53
2022-08-19T23:41:48.364Z,3.53
2022-08-19T23:44:16.478Z,3.10
2022-08-19T23:46:54.722Z,3.50
2022-08-19T23:49:26.506Z,4.17
2022-08-19T23:51:55.908Z,3.40
2022-08-19T23:54:34.285Z,4.10
2022-08-19T23:57:13.822Z,4.23
2022-08-19T23:59:45.327Z,3.63
